Startpagina
METAR-TAF:

METAR-TAF

Vliegvelden :

Flughafen Saarbrücken

Saarbrücken, Duitsland

breedte: 49-13N, lengte: 007-07E, hoogte: 322 m

Actueel weer

Dit bericht is 11 minuten geleden gemaakt, om 02:50 UTC
Wind 6 kt uit het westnoordwesten, variërend tussen het westen en het noordnoordwesten
Temperatuur 2°C
Vochtigheid 93%
Druk 1022 hPa
Zicht 10 km of meer
Weinig wolken op 3000 ft

METAR: EDDR 120250Z 30006KT 270V330 9999 FEW030 02/01 Q1022

Tijdstip: 05:01 (03:01 UTC)

Verwachting

Dit bericht is 4 uur en het 1 minuten geleden gemaakt, om 23:00 UTC
Verwachting geldig van 12 om 00 UTC tot 12 om 24 UTC
Wind 7 kt uit het westnoordwesten
Zicht 10 km of meer
Verspreide wolken op 1000 ft
Verspreide wolken op 2500 ft
Tijdelijke
van 12 om 00 UTC tot 12 om 02 UTC
Gebroken wolken op 1000 ft
Wijzigt naar
van 12 om 21 UTC tot 12 om 24 UTC
Wind 3 kt uit variabele richting

TAF: EDDR 112300Z 1200/1224 30007KT 9999 SCT010 SCT025 TEMPO 1200/1202 BKN010 BECMG 1221/1224 VRB03KT

Waarnemingen en weersverwachtingen van meer dan 4000 vliegvelden (METAR en TAF).

De beschikbare stations zijn de gele en rode punten op de kaart.

Ga met uw muis naar het station om de naam te zien.

Klik dan om waarnemingen en weersverwachtingen te zien.

kaart wijzigen: klik op de groene knoppen met een zwart kruis om in te zoomen, op de groene knop met een streepje om uit te zoomen of op de groene pijlen voor aangrenzende kaarten.


METAR-TAF: